sensor_id;sensor_type;location;lat;lon;timestamp;temperature;humidity
1936;DHT22;969;49.892;10.896;2023-06-22T00:00:58;27.40;57.10
1936;DHT22;969;49.892;10.896;2023-06-22T00:03:25;27.40;57.60
1936;DHT22;969;49.892;10.896;2023-06-22T00:05:51;27.40;57.00
1936;DHT22;969;49.892;10.896;2023-06-22T00:08:18;27.40;57.00
1936;DHT22;969;49.892;10.896;2023-06-22T00:10:45;27.40;57.10
1936;DHT22;969;49.892;10.896;2023-06-22T00:13:11;27.40;57.20
1936;DHT22;969;49.892;10.896;2023-06-22T00:15:38;27.40;57.10
1936;DHT22;969;49.892;10.896;2023-06-22T00:18:07;27.40;57.20
1936;DHT22;969;49.892;10.896;2023-06-22T00:20:32;27.40;57.20
1936;DHT22;969;49.892;10.896;2023-06-22T00:22:59;27.40;57.10
1936;DHT22;969;49.892;10.896;2023-06-22T00:25:25;27.40;57.30
1936;DHT22;969;49.892;10.896;2023-06-22T00:27:51;27.40;57.40
1936;DHT22;969;49.892;10.896;2023-06-22T00:30:17;27.40;57.50
1936;DHT22;969;49.892;10.896;2023-06-22T00:32:44;27.30;57.50
1936;DHT22;969;49.892;10.896;2023-06-22T00:35:11;27.30;57.50
1936;DHT22;969;49.892;10.896;2023-06-22T00:37:37;27.20;57.60
1936;DHT22;969;49.892;10.896;2023-06-22T00:40:04;27.30;57.70
1936;DHT22;969;49.892;10.896;2023-06-22T00:42:30;27.30;57.60
1936;DHT22;969;49.892;10.896;2023-06-22T00:44:56;27.30;57.70
1936;DHT22;969;49.892;10.896;2023-06-22T00:47:22;27.30;57.70
1936;DHT22;969;49.892;10.896;2023-06-22T00:49:49;27.30;57.90
1936;DHT22;969;49.892;10.896;2023-06-22T00:52:17;27.30;57.80
1936;DHT22;969;49.892;10.896;2023-06-22T00:54:49;27.20;57.80
1936;DHT22;969;49.892;10.896;2023-06-22T00:57:17;27.20;57.80
1936;DHT22;969;49.892;10.896;2023-06-22T00:59:44;27.30;57.90
1936;DHT22;969;49.892;10.896;2023-06-22T01:02:10;27.30;57.70
1936;DHT22;969;49.892;10.896;2023-06-22T01:04:38;27.30;57.70
1936;DHT22;969;49.892;10.896;2023-06-22T01:07:34;27.30;57.70
1936;DHT22;969;49.892;10.896;2023-06-22T01:12:45;27.30;57.70
1936;DHT22;969;49.892;10.896;2023-06-22T01:15:25;27.30;57.70
1936;DHT22;969;49.892;10.896;2023-06-22T01:17:53;27.30;57.70
1936;DHT22;969;49.892;10.896;2023-06-22T01:20:22;27.30;57.70
1936;DHT22;969;49.892;10.896;2023-06-22T01:23:47;27.30;57.60
1936;DHT22;969;49.892;10.896;2023-06-22T01:26:22;27.30;57.70
1936;DHT22;969;49.892;10.896;2023-06-22T01:28:54;27.30;57.80
1936;DHT22;969;49.892;10.896;2023-06-22T01:31:27;27.30;57.80
1936;DHT22;969;49.892;10.896;2023-06-22T01:33:58;27.20;58.30
1936;DHT22;969;49.892;10.896;2023-06-22T01:36:25;27.20;57.70
1936;DHT22;969;49.892;10.896;2023-06-22T01:38:52;27.30;57.70
1936;DHT22;969;49.892;10.896;2023-06-22T01:41:20;27.30;57.80
1936;DHT22;969;49.892;10.896;2023-06-22T01:43:47;27.30;57.80
1936;DHT22;969;49.892;10.896;2023-06-22T01:46:13;27.30;57.80
1936;DHT22;969;49.892;10.896;2023-06-22T01:48:40;27.30;57.80
1936;DHT22;969;49.892;10.896;2023-06-22T01:51:06;27.30;57.70
1936;DHT22;969;49.892;10.896;2023-06-22T01:53:31;27.30;57.70
1936;DHT22;969;49.892;10.896;2023-06-22T01:55:57;27.30;57.90
1936;DHT22;969;49.892;10.896;2023-06-22T01:58:26;27.30;57.80
1936;DHT22;969;49.892;10.896;2023-06-22T02:01:10;27.20;57.80
1936;DHT22;969;49.892;10.896;2023-06-22T02:03:47;27.20;57.80
1936;DHT22;969;49.892;10.896;2023-06-22T02:06:17;27.10;57.90
1936;DHT22;969;49.892;10.896;2023-06-22T02:08:51;27.10;57.80
1936;DHT22;969;49.892;10.896;2023-06-22T02:11:20;27.20;57.80
1936;DHT22;969;49.892;10.896;2023-06-22T02:13:47;27.10;57.80
1936;DHT22;969;49.892;10.896;2023-06-22T02:16:14;27.10;57.80
1936;DHT22;969;49.892;10.896;2023-06-22T02:18:48;27.10;57.90
1936;DHT22;969;49.892;10.896;2023-06-22T02:21:16;27.10;57.80
1936;DHT22;969;49.892;10.896;2023-06-22T02:23:42;27.20;57.80
1936;DHT22;969;49.892;10.896;2023-06-22T02:26:08;27.10;57.70
1936;DHT22;969;49.892;10.896;2023-06-22T02:28:33;27.10;57.70
1936;DHT22;969;49.892;10.896;2023-06-22T02:30:59;27.20;57.80
1936;DHT22;969;49.892;10.896;2023-06-22T02:33:24;27.20;57.70
1936;DHT22;969;49.892;10.896;2023-06-22T02:35:50;27.20;57.80
1936;DHT22;969;49.892;10.896;2023-06-22T02:38:16;27.20;57.80
1936;DHT22;969;49.892;10.896;2023-06-22T02:40:42;27.20;57.70
1936;DHT22;969;49.892;10.896;2023-06-22T02:43:08;27.20;57.80
1936;DHT22;969;49.892;10.896;2023-06-22T02:45:34;27.20;57.90
1936;DHT22;969;49.892;10.896;2023-06-22T02:47:59;27.20;57.90
1936;DHT22;969;49.892;10.896;2023-06-22T02:50:25;27.10;57.90
1936;DHT22;969;49.892;10.896;2023-06-22T02:52:50;27.10;58.10
1936;DHT22;969;49.892;10.896;2023-06-22T02:55:16;27.10;58.10
1936;DHT22;969;49.892;10.896;2023-06-22T02:57:42;27.10;58.30
1936;DHT22;969;49.892;10.896;2023-06-22T03:00:09;27.00;58.20
1936;DHT22;969;49.892;10.896;2023-06-22T03:02:48;27.00;58.30
1936;DHT22;969;49.892;10.896;2023-06-22T03:05:15;27.00;58.30
1936;DHT22;969;49.892;10.896;2023-06-22T03:07:46;27.00;58.40
1936;DHT22;969;49.892;10.896;2023-06-22T03:10:13;27.00;58.30
1936;DHT22;969;49.892;10.896;2023-06-22T03:12:39;26.90;58.40
1936;DHT22;969;49.892;10.896;2023-06-22T03:15:06;27.00;58.40
1936;DHT22;969;49.892;10.896;2023-06-22T03:17:33;27.00;58.40
1936;DHT22;969;49.892;10.896;2023-06-22T03:19:58;26.90;58.40
1936;DHT22;969;49.892;10.896;2023-06-22T03:22:24;26.90;58.60
1936;DHT22;969;49.892;10.896;2023-06-22T03:24:49;26.90;58.50
1936;DHT22;969;49.892;10.896;2023-06-22T03:27:15;27.00;58.50
1936;DHT22;969;49.892;10.896;2023-06-22T03:29:40;27.00;58.50
1936;DHT22;969;49.892;10.896;2023-06-22T03:32:06;27.00;58.50
1936;DHT22;969;49.892;10.896;2023-06-22T03:34:32;27.00;58.50
1936;DHT22;969;49.892;10.896;2023-06-22T03:37:04;26.90;58.50
1936;DHT22;969;49.892;10.896;2023-06-22T03:39:29;26.90;58.50
1936;DHT22;969;49.892;10.896;2023-06-22T03:41:55;26.90;58.60
1936;DHT22;969;49.892;10.896;2023-06-22T03:44:21;26.90;58.70
1936;DHT22;969;49.892;10.896;2023-06-22T03:46:46;26.90;58.60
1936;DHT22;969;49.892;10.896;2023-06-22T03:49:12;26.90;58.70
1936;DHT22;969;49.892;10.896;2023-06-22T03:51:37;26.90;58.60
1936;DHT22;969;49.892;10.896;2023-06-22T03:54:03;26.90;58.60
1936;DHT22;969;49.892;10.896;2023-06-22T03:56:28;26.90;58.60
1936;DHT22;969;49.892;10.896;2023-06-22T03:58:54;26.90;58.60
1936;DHT22;969;49.892;10.896;2023-06-22T04:01:20;26.90;58.60
1936;DHT22;969;49.892;10.896;2023-06-22T04:03:45;26.90;58.70
1936;DHT22;969;49.892;10.896;2023-06-22T04:06:13;26.90;58.50
1936;DHT22;969;49.892;10.896;2023-06-22T04:08:39;26.90;58.50
1936;DHT22;969;49.892;10.896;2023-06-22T04:11:04;26.90;58.60
1936;DHT22;969;49.892;10.896;2023-06-22T04:13:30;26.90;58.70
1936;DHT22;969;49.892;10.896;2023-06-22T04:15:56;27.00;58.70
1936;DHT22;969;49.892;10.896;2023-06-22T04:18:21;27.00;58.70
1936;DHT22;969;49.892;10.896;2023-06-22T04:20:47;26.90;59.20
1936;DHT22;969;49.892;10.896;2023-06-22T04:23:13;26.90;58.50
1936;DHT22;969;49.892;10.896;2023-06-22T04:25:39;27.00;58.60
1936;DHT22;969;49.892;10.896;2023-06-22T04:28:05;27.00;58.60
1936;DHT22;969;49.892;10.896;2023-06-22T04:30:32;26.90;58.50
1936;DHT22;969;49.892;10.896;2023-06-22T04:32:57;27.00;58.50
1936;DHT22;969;49.892;10.896;2023-06-22T04:35:24;27.00;58.50
1936;DHT22;969;49.892;10.896;2023-06-22T04:37:50;27.00;58.50
1936;DHT22;969;49.892;10.896;2023-06-22T04:40:16;26.90;58.50
1936;DHT22;969;49.892;10.896;2023-06-22T04:42:41;26.90;58.60
1936;DHT22;969;49.892;10.896;2023-06-22T04:45:17;27.00;58.70
1936;DHT22;969;49.892;10.896;2023-06-22T04:47:43;27.00;58.50
1936;DHT22;969;49.892;10.896;2023-06-22T04:50:12;27.00;58.40
1936;DHT22;969;49.892;10.896;2023-06-22T04:52:38;27.00;58.40
1936;DHT22;969;49.892;10.896;2023-06-22T04:55:04;27.00;58.40
1936;DHT22;969;49.892;10.896;2023-06-22T04:57:30;27.10;58.50
1936;DHT22;969;49.892;10.896;2023-06-22T04:59:58;27.10;58.40
1936;DHT22;969;49.892;10.896;2023-06-22T05:02:36;27.10;58.40
1936;DHT22;969;49.892;10.896;2023-06-22T05:05:03;27.10;58.40
1936;DHT22;969;49.892;10.896;2023-06-22T05:07:36;27.10;58.40
1936;DHT22;969;49.892;10.896;2023-06-22T05:10:03;27.10;58.30
1936;DHT22;969;49.892;10.896;2023-06-22T05:12:29;27.10;58.30
1936;DHT22;969;49.892;10.896;2023-06-22T05:14:55;27.10;58.30
1936;DHT22;969;49.892;10.896;2023-06-22T05:17:21;27.10;58.20
1936;DHT22;969;49.892;10.896;2023-06-22T05:19:47;27.10;58.30
1936;DHT22;969;49.892;10.896;2023-06-22T05:22:16;27.10;58.20
1936;DHT22;969;49.892;10.896;2023-06-22T05:24:42;27.10;58.30
1936;DHT22;969;49.892;10.896;2023-06-22T05:27:08;27.10;58.30
1936;DHT22;969;49.892;10.896;2023-06-22T05:29:34;27.10;58.20
1936;DHT22;969;49.892;10.896;2023-06-22T05:31:59;27.20;58.30
1936;DHT22;969;49.892;10.896;2023-06-22T05:34:25;27.20;58.20
1936;DHT22;969;49.892;10.896;2023-06-22T05:36:51;27.20;58.20
1936;DHT22;969;49.892;10.896;2023-06-22T05:39:17;27.20;58.00
1936;DHT22;969;49.892;10.896;2023-06-22T05:41:44;27.20;58.10
1936;DHT22;969;49.892;10.896;2023-06-22T05:44:09;27.20;58.20
1936;DHT22;969;49.892;10.896;2023-06-22T05:46:35;27.20;58.10
1936;DHT22;969;49.892;10.896;2023-06-22T05:49:01;27.20;58.10
1936;DHT22;969;49.892;10.896;2023-06-22T05:51:26;27.20;58.00
1936;DHT22;969;49.892;10.896;2023-06-22T05:53:52;27.20;58.10
1936;DHT22;969;49.892;10.896;2023-06-22T05:56:18;27.20;57.90
1936;DHT22;969;49.892;10.896;2023-06-22T05:58:43;27.20;58.00
1936;DHT22;969;49.892;10.896;2023-06-22T06:01:09;27.20;57.90
1936;DHT22;969;49.892;10.896;2023-06-22T06:03:35;27.20;58.00
1936;DHT22;969;49.892;10.896;2023-06-22T06:06:07;27.20;58.00
1936;DHT22;969;49.892;10.896;2023-06-22T06:08:32;27.20;58.00
1936;DHT22;969;49.892;10.896;2023-06-22T06:10:58;27.20;58.10
1936;DHT22;969;49.892;10.896;2023-06-22T06:13:24;27.20;58.00
1936;DHT22;969;49.892;10.896;2023-06-22T06:15:50;27.30;58.00
1936;DHT22;969;49.892;10.896;2023-06-22T06:18:20;27.20;58.00
1936;DHT22;969;49.892;10.896;2023-06-22T06:20:46;27.30;58.20
1936;DHT22;969;49.892;10.896;2023-06-22T06:23:11;27.30;58.10
1936;DHT22;969;49.892;10.896;2023-06-22T06:25:37;27.20;58.10
1936;DHT22;969;49.892;10.896;2023-06-22T06:28:03;27.30;58.10
1936;DHT22;969;49.892;10.896;2023-06-22T06:30:29;27.30;58.10
1936;DHT22;969;49.892;10.896;2023-06-22T06:32:54;27.30;58.10
1936;DHT22;969;49.892;10.896;2023-06-22T06:35:21;27.30;58.10
1936;DHT22;969;49.892;10.896;2023-06-22T06:37:49;27.30;58.30
1936;DHT22;969;49.892;10.896;2023-06-22T06:40:16;27.30;58.20
1936;DHT22;969;49.892;10.896;2023-06-22T06:42:47;27.30;58.20
1936;DHT22;969;49.892;10.896;2023-06-22T06:45:17;27.30;58.10
1936;DHT22;969;49.892;10.896;2023-06-22T06:47:43;27.30;58.30
1936;DHT22;969;49.892;10.896;2023-06-22T06:50:10;27.30;58.40
1936;DHT22;969;49.892;10.896;2023-06-22T06:52:36;27.30;58.30
1936;DHT22;969;49.892;10.896;2023-06-22T06:55:02;27.30;58.20
1936;DHT22;969;49.892;10.896;2023-06-22T06:57:30;27.30;58.00
1936;DHT22;969;49.892;10.896;2023-06-22T06:59:56;27.30;58.00
1936;DHT22;969;49.892;10.896;2023-06-22T07:02:23;27.30;58.00
1936;DHT22;969;49.892;10.896;2023-06-22T07:04:49;27.40;58.10
1936;DHT22;969;49.892;10.896;2023-06-22T07:07:15;27.40;58.00
1936;DHT22;969;49.892;10.896;2023-06-22T07:09:40;27.30;57.90
1936;DHT22;969;49.892;10.896;2023-06-22T07:12:06;27.30;57.90
1936;DHT22;969;49.892;10.896;2023-06-22T07:14:32;27.30;57.90
1936;DHT22;969;49.892;10.896;2023-06-22T07:16:58;27.40;58.00
1936;DHT22;969;49.892;10.896;2023-06-22T07:19:25;27.40;58.00
1936;DHT22;969;49.892;10.896;2023-06-22T07:21:52;27.40;57.90
1936;DHT22;969;49.892;10.896;2023-06-22T07:24:19;27.40;57.90
1936;DHT22;969;49.892;10.896;2023-06-22T07:26:45;27.30;57.80
1936;DHT22;969;49.892;10.896;2023-06-22T07:29:11;27.40;57.80
1936;DHT22;969;49.892;10.896;2023-06-22T07:31:37;27.40;57.90
1936;DHT22;969;49.892;10.896;2023-06-22T07:34:02;27.40;57.80
1936;DHT22;969;49.892;10.896;2023-06-22T07:36:29;27.40;57.80
1936;DHT22;969;49.892;10.896;2023-06-22T07:38:55;27.40;57.70
1936;DHT22;969;49.892;10.896;2023-06-22T07:41:21;27.40;57.70
1936;DHT22;969;49.892;10.896;2023-06-22T07:43:46;27.40;57.60
1936;DHT22;969;49.892;10.896;2023-06-22T07:46:12;27.40;57.50
1936;DHT22;969;49.892;10.896;2023-06-22T07:48:38;27.40;57.50
1936;DHT22;969;49.892;10.896;2023-06-22T07:51:04;27.40;57.50
1936;DHT22;969;49.892;10.896;2023-06-22T07:53:31;27.40;57.50
1936;DHT22;969;49.892;10.896;2023-06-22T07:55:57;27.40;57.40
1936;DHT22;969;49.892;10.896;2023-06-22T07:58:22;27.40;57.30
1936;DHT22;969;49.892;10.896;2023-06-22T08:00:48;27.40;57.30
1936;DHT22;969;49.892;10.896;2023-06-22T08:03:14;27.40;57.30
1936;DHT22;969;49.892;10.896;2023-06-22T08:05:40;27.40;57.30
1936;DHT22;969;49.892;10.896;2023-06-22T08:08:05;27.40;57.30
1936;DHT22;969;49.892;10.896;2023-06-22T08:10:31;27.40;57.30
1936;DHT22;969;49.892;10.896;2023-06-22T08:12:57;27.40;57.20
1936;DHT22;969;49.892;10.896;2023-06-22T08:15:22;27.50;57.30
1936;DHT22;969;49.892;10.896;2023-06-22T08:17:48;27.40;57.20
1936;DHT22;969;49.892;10.896;2023-06-22T08:20:14;27.40;57.20
1936;DHT22;969;49.892;10.896;2023-06-22T08:22:40;27.50;57.80
1936;DHT22;969;49.892;10.896;2023-06-22T08:25:07;27.50;57.20
1936;DHT22;969;49.892;10.896;2023-06-22T08:27:33;27.40;57.10
1936;DHT22;969;49.892;10.896;2023-06-22T08:29:59;27.40;57.20
1936;DHT22;969;49.892;10.896;2023-06-22T08:32:26;27.50;57.10
1936;DHT22;969;49.892;10.896;2023-06-22T08:34:53;27.50;57.20
1936;DHT22;969;49.892;10.896;2023-06-22T08:37:19;27.50;57.20
1936;DHT22;969;49.892;10.896;2023-06-22T08:39:45;27.50;57.10
1936;DHT22;969;49.892;10.896;2023-06-22T08:42:11;27.50;57.00
1936;DHT22;969;49.892;10.896;2023-06-22T08:44:37;27.50;57.10
1936;DHT22;969;49.892;10.896;2023-06-22T08:47:03;27.50;57.00
1936;DHT22;969;49.892;10.896;2023-06-22T08:49:29;27.50;56.90
1936;DHT22;969;49.892;10.896;2023-06-22T08:51:54;27.50;56.80
1936;DHT22;969;49.892;10.896;2023-06-22T08:54:22;27.50;56.80
1936;DHT22;969;49.892;10.896;2023-06-22T08:56:47;27.50;56.90
1936;DHT22;969;49.892;10.896;2023-06-22T08:59:13;27.50;56.90
1936;DHT22;969;49.892;10.896;2023-06-22T09:01:39;27.50;56.90
1936;DHT22;969;49.892;10.896;2023-06-22T09:04:04;27.50;56.90
1936;DHT22;969;49.892;10.896;2023-06-22T09:06:31;27.50;56.90
1936;DHT22;969;49.892;10.896;2023-06-22T09:08:57;27.50;56.90
1936;DHT22;969;49.892;10.896;2023-06-22T09:11:25;27.50;56.90
1936;DHT22;969;49.892;10.896;2023-06-22T09:13:50;27.50;56.90
1936;DHT22;969;49.892;10.896;2023-06-22T09:16:17;27.50;56.90
1936;DHT22;969;49.892;10.896;2023-06-22T09:18:47;27.50;56.90
1936;DHT22;969;49.892;10.896;2023-06-22T09:21:13;27.50;56.80
1936;DHT22;969;49.892;10.896;2023-06-22T09:23:38;27.50;56.80
1936;DHT22;969;49.892;10.896;2023-06-22T09:26:04;27.50;57.40
1936;DHT22;969;49.892;10.896;2023-06-22T09:28:29;27.60;56.90
1936;DHT22;969;49.892;10.896;2023-06-22T09:30:55;27.60;56.80
1936;DHT22;969;49.892;10.896;2023-06-22T09:33:24;27.50;56.80
1936;DHT22;969;49.892;10.896;2023-06-22T09:35:49;27.60;56.80
1936;DHT22;969;49.892;10.896;2023-06-22T09:38:16;27.60;56.80
1936;DHT22;969;49.892;10.896;2023-06-22T09:40:42;27.50;56.80
1936;DHT22;969;49.892;10.896;2023-06-22T09:43:08;27.50;56.70
1936;DHT22;969;49.892;10.896;2023-06-22T09:45:33;27.50;56.70
1936;DHT22;969;49.892;10.896;2023-06-22T09:47:59;27.60;56.70
1936;DHT22;969;49.892;10.896;2023-06-22T09:50:25;27.60;56.70
1936;DHT22;969;49.892;10.896;2023-06-22T09:52:50;27.50;56.70
1936;DHT22;969;49.892;10.896;2023-06-22T09:55:20;27.60;56.60
1936;DHT22;969;49.892;10.896;2023-06-22T09:57:46;27.50;56.60
1936;DHT22;969;49.892;10.896;2023-06-22T10:00:13;27.60;56.60
1936;DHT22;969;49.892;10.896;2023-06-22T10:02:40;27.50;56.50
1936;DHT22;969;49.892;10.896;2023-06-22T10:05:06;27.60;56.60
1936;DHT22;969;49.892;10.896;2023-06-22T10:07:33;27.50;56.60
1936;DHT22;969;49.892;10.896;2023-06-22T10:09:58;27.60;56.60
1936;DHT22;969;49.892;10.896;2023-06-22T10:12:25;27.50;56.50
1936;DHT22;969;49.892;10.896;2023-06-22T10:14:50;27.50;56.50
1936;DHT22;969;49.892;10.896;2023-06-22T10:17:16;27.60;56.50
1936;DHT22;969;49.892;10.896;2023-06-22T10:19:41;27.60;56.40
1936;DHT22;969;49.892;10.896;2023-06-22T10:22:07;27.60;56.40
1936;DHT22;969;49.892;10.896;2023-06-22T10:24:33;27.60;56.40
1936;DHT22;969;49.892;10.896;2023-06-22T10:26:58;27.60;56.40
1936;DHT22;969;49.892;10.896;2023-06-22T10:29:24;27.60;56.40
1936;DHT22;969;49.892;10.896;2023-06-22T10:31:50;27.60;56.30
1936;DHT22;969;49.892;10.896;2023-06-22T10:34:15;27.60;56.30
1936;DHT22;969;49.892;10.896;2023-06-22T10:36:41;27.60;56.30
1936;DHT22;969;49.892;10.896;2023-06-22T10:39:07;27.60;56.40
1936;DHT22;969;49.892;10.896;2023-06-22T10:41:32;27.60;56.40
1936;DHT22;969;49.892;10.896;2023-06-22T10:43:58;27.60;56.40
1936;DHT22;969;49.892;10.896;2023-06-22T10:46:27;27.60;56.40
1936;DHT22;969;49.892;10.896;2023-06-22T10:48:53;27.60;56.30
1936;DHT22;969;49.892;10.896;2023-06-22T10:51:20;27.60;56.30
1936;DHT22;969;49.892;10.896;2023-06-22T10:53:46;27.60;56.20
1936;DHT22;969;49.892;10.896;2023-06-22T10:56:11;27.60;56.30
1936;DHT22;969;49.892;10.896;2023-06-22T10:58:37;27.60;56.20
1936;DHT22;969;49.892;10.896;2023-06-22T11:01:03;27.60;56.20
1936;DHT22;969;49.892;10.896;2023-06-22T11:03:28;27.60;56.20
1936;DHT22;969;49.892;10.896;2023-06-22T11:05:54;27.60;56.20
1936;DHT22;969;49.892;10.896;2023-06-22T11:08:20;27.60;56.10
1936;DHT22;969;49.892;10.896;2023-06-22T11:10:45;27.60;56.20
1936;DHT22;969;49.892;10.896;2023-06-22T11:13:11;27.60;56.30
1936;DHT22;969;49.892;10.896;2023-06-22T11:15:36;27.60;56.10
1936;DHT22;969;49.892;10.896;2023-06-22T11:18:02;27.60;56.10
1936;DHT22;969;49.892;10.896;2023-06-22T11:20:28;27.60;56.10
1936;DHT22;969;49.892;10.896;2023-06-22T11:22:53;27.60;56.10
1936;DHT22;969;49.892;10.896;2023-06-22T11:25:19;27.60;56.10
1936;DHT22;969;49.892;10.896;2023-06-22T11:27:44;27.60;56.10
1936;DHT22;969;49.892;10.896;2023-06-22T11:30:10;27.60;56.10
1936;DHT22;969;49.892;10.896;2023-06-22T11:32:36;27.60;56.00
1936;DHT22;969;49.892;10.896;2023-06-22T11:35:01;27.60;56.00
1936;DHT22;969;49.892;10.896;2023-06-22T11:37:27;27.60;56.00
1936;DHT22;969;49.892;10.896;2023-06-22T11:39:52;27.60;55.90
1936;DHT22;969;49.892;10.896;2023-06-22T11:42:20;27.60;56.00
1936;DHT22;969;49.892;10.896;2023-06-22T11:44:45;27.60;56.00
1936;DHT22;969;49.892;10.896;2023-06-22T11:47:11;27.60;56.00
1936;DHT22;969;49.892;10.896;2023-06-22T11:49:37;27.60;56.00
1936;DHT22;969;49.892;10.896;2023-06-22T11:52:02;27.60;56.50
1936;DHT22;969;49.892;10.896;2023-06-22T11:54:28;27.60;56.50
1936;DHT22;969;49.892;10.896;2023-06-22T11:56:53;27.60;55.90
1936;DHT22;969;49.892;10.896;2023-06-22T11:59:19;27.60;55.80
1936;DHT22;969;49.892;10.896;2023-06-22T12:01:47;27.60;55.80
1936;DHT22;969;49.892;10.896;2023-06-22T12:04:14;27.60;55.60
1936;DHT22;969;49.892;10.896;2023-06-22T12:06:40;27.60;55.60
1936;DHT22;969;49.892;10.896;2023-06-22T12:09:08;27.60;55.50
1936;DHT22;969;49.892;10.896;2023-06-22T12:11:33;27.60;55.50
1936;DHT22;969;49.892;10.896;2023-06-22T12:13:59;27.60;55.50
1936;DHT22;969;49.892;10.896;2023-06-22T12:16:30;27.60;55.40
1936;DHT22;969;49.892;10.896;2023-06-22T12:18:56;27.60;55.30
1936;DHT22;969;49.892;10.896;2023-06-22T12:21:21;27.60;55.20
1936;DHT22;969;49.892;10.896;2023-06-22T12:23:47;27.60;55.10
1936;DHT22;969;49.892;10.896;2023-06-22T12:26:12;27.60;55.10
1936;DHT22;969;49.892;10.896;2023-06-22T12:28:38;27.60;55.10
1936;DHT22;969;49.892;10.896;2023-06-22T12:31:03;27.60;55.10
1936;DHT22;969;49.892;10.896;2023-06-22T12:33:29;27.70;55.10
1936;DHT22;969;49.892;10.896;2023-06-22T12:35:56;27.60;55.10
1936;DHT22;969;49.892;10.896;2023-06-22T12:38:21;27.70;55.20
1936;DHT22;969;49.892;10.896;2023-06-22T12:40:47;27.70;55.10
1936;DHT22;969;49.892;10.896;2023-06-22T12:43:14;27.70;55.00
1936;DHT22;969;49.892;10.896;2023-06-22T12:45:40;27.70;55.00
1936;DHT22;969;49.892;10.896;2023-06-22T12:48:06;27.70;55.00
1936;DHT22;969;49.892;10.896;2023-06-22T12:50:31;27.70;54.90
1936;DHT22;969;49.892;10.896;2023-06-22T12:52:57;27.70;54.90
1936;DHT22;969;49.892;10.896;2023-06-22T12:55:23;27.70;54.90
1936;DHT22;969;49.892;10.896;2023-06-22T12:57:48;27.80;55.00
1936;DHT22;969;49.892;10.896;2023-06-22T13:00:14;27.80;54.90
1936;DHT22;969;49.892;10.896;2023-06-22T13:02:40;27.70;54.90
1936;DHT22;969;49.892;10.896;2023-06-22T13:05:06;27.80;55.00
1936;DHT22;969;49.892;10.896;2023-06-22T13:07:32;27.70;54.90
1936;DHT22;969;49.892;10.896;2023-06-22T13:09:57;27.80;55.00
1936;DHT22;969;49.892;10.896;2023-06-22T13:12:23;27.80;54.90
1936;DHT22;969;49.892;10.896;2023-06-22T13:14:49;27.80;55.00
1936;DHT22;969;49.892;10.896;2023-06-22T13:17:14;27.80;55.00
1936;DHT22;969;49.892;10.896;2023-06-22T13:19:40;27.80;55.00
1936;DHT22;969;49.892;10.896;2023-06-22T13:22:29;27.80;55.00
1936;DHT22;969;49.892;10.896;2023-06-22T13:24:55;27.80;55.00
1936;DHT22;969;49.892;10.896;2023-06-22T13:27:20;27.80;55.00
1936;DHT22;969;49.892;10.896;2023-06-22T13:29:46;27.80;55.00
1936;DHT22;969;49.892;10.896;2023-06-22T13:32:12;27.80;55.00
1936;DHT22;969;49.892;10.896;2023-06-22T13:34:37;27.80;55.00
1936;DHT22;969;49.892;10.896;2023-06-22T13:37:03;27.80;55.60
1936;DHT22;969;49.892;10.896;2023-06-22T13:39:28;27.80;55.10
1936;DHT22;969;49.892;10.896;2023-06-22T13:41:54;27.90;55.10
1936;DHT22;969;49.892;10.896;2023-06-22T13:44:19;27.90;55.10
1936;DHT22;969;49.892;10.896;2023-06-22T13:46:47;27.90;55.10
1936;DHT22;969;49.892;10.896;2023-06-22T13:49:13;27.90;55.20
1936;DHT22;969;49.892;10.896;2023-06-22T13:51:38;27.90;55.20
1936;DHT22;969;49.892;10.896;2023-06-22T13:54:04;28.00;55.40
1936;DHT22;969;49.892;10.896;2023-06-22T13:56:30;28.00;55.30
1936;DHT22;969;49.892;10.896;2023-06-22T13:58:55;28.00;55.30
1936;DHT22;969;49.892;10.896;2023-06-22T14:01:21;28.00;55.30
1936;DHT22;969;49.892;10.896;2023-06-22T14:03:48;28.00;55.30
1936;DHT22;969;49.892;10.896;2023-06-22T14:06:13;28.00;55.20
1936;DHT22;969;49.892;10.896;2023-06-22T14:08:39;28.00;55.20
1936;DHT22;969;49.892;10.896;2023-06-22T14:11:04;28.00;55.20
1936;DHT22;969;49.892;10.896;2023-06-22T14:13:30;28.10;55.20
1936;DHT22;969;49.892;10.896;2023-06-22T14:15:56;28.00;55.10
1936;DHT22;969;49.892;10.896;2023-06-22T14:18:21;28.10;55.20
1936;DHT22;969;49.892;10.896;2023-06-22T14:20:49;28.10;55.10
1936;DHT22;969;49.892;10.896;2023-06-22T14:23:15;28.10;55.10
1936;DHT22;969;49.892;10.896;2023-06-22T14:25:41;28.10;55.10
1936;DHT22;969;49.892;10.896;2023-06-22T14:28:06;28.10;55.70
1936;DHT22;969;49.892;10.896;2023-06-22T14:30:32;28.10;55.10
1936;DHT22;969;49.892;10.896;2023-06-22T14:32:57;28.10;55.10
1936;DHT22;969;49.892;10.896;2023-06-22T14:35:23;28.10;55.10
1936;DHT22;969;49.892;10.896;2023-06-22T14:37:50;28.10;55.10
1936;DHT22;969;49.892;10.896;2023-06-22T14:40:15;28.10;55.10
1936;DHT22;969;49.892;10.896;2023-06-22T14:42:41;28.10;55.10
1936;DHT22;969;49.892;10.896;2023-06-22T14:45:07;28.10;55.10
1936;DHT22;969;49.892;10.896;2023-06-22T14:47:32;28.10;55.10
1936;DHT22;969;49.892;10.896;2023-06-22T14:49:58;28.10;55.10
1936;DHT22;969;49.892;10.896;2023-06-22T14:52:25;28.20;55.10
1936;DHT22;969;49.892;10.896;2023-06-22T14:54:51;28.20;55.10
1936;DHT22;969;49.892;10.896;2023-06-22T14:57:18;28.20;55.00
1936;DHT22;969;49.892;10.896;2023-06-22T14:59:46;28.20;55.00
1936;DHT22;969;49.892;10.896;2023-06-22T15:02:11;28.20;55.00
1936;DHT22;969;49.892;10.896;2023-06-22T15:04:37;28.20;54.90
1936;DHT22;969;49.892;10.896;2023-06-22T15:07:03;28.20;54.80
1936;DHT22;969;49.892;10.896;2023-06-22T15:09:28;28.20;54.80
1936;DHT22;969;49.892;10.896;2023-06-22T15:11:54;28.20;54.80
1936;DHT22;969;49.892;10.896;2023-06-22T15:14:19;28.20;54.80
1936;DHT22;969;49.892;10.896;2023-06-22T15:16:45;28.20;54.80
1936;DHT22;969;49.892;10.896;2023-06-22T15:19:11;28.30;54.90
1936;DHT22;969;49.892;10.896;2023-06-22T15:21:38;28.30;54.90
1936;DHT22;969;49.892;10.896;2023-06-22T15:24:04;28.30;54.90
1936;DHT22;969;49.892;10.896;2023-06-22T15:26:29;28.20;54.90
1936;DHT22;969;49.892;10.896;2023-06-22T15:28:55;28.30;55.00
1936;DHT22;969;49.892;10.896;2023-06-22T15:31:21;28.30;54.90
1936;DHT22;969;49.892;10.896;2023-06-22T15:33:46;28.30;55.50
1936;DHT22;969;49.892;10.896;2023-06-22T15:36:12;28.30;55.00
1936;DHT22;969;49.892;10.896;2023-06-22T15:38:38;28.30;55.00
1936;DHT22;969;49.892;10.896;2023-06-22T15:41:03;28.30;55.00
1936;DHT22;969;49.892;10.896;2023-06-22T15:43:29;28.30;55.00
1936;DHT22;969;49.892;10.896;2023-06-22T15:45:54;28.30;55.00
1936;DHT22;969;49.892;10.896;2023-06-22T15:48:23;28.30;55.60
1936;DHT22;969;49.892;10.896;2023-06-22T15:50:49;28.40;55.10
1936;DHT22;969;49.892;10.896;2023-06-22T15:53:15;28.40;55.10
1936;DHT22;969;49.892;10.896;2023-06-22T15:55:40;28.40;55.10
1936;DHT22;969;49.892;10.896;2023-06-22T15:58:07;28.40;55.10
1936;DHT22;969;49.892;10.896;2023-06-22T16:00:34;28.40;55.10